createdAt,value
2023-02-01T00:00:49.632Z,2.80
2023-02-01T00:06:00.031Z,2.85
2023-02-01T00:11:07.290Z,2.91
2023-02-01T00:16:17.473Z,2.97
2023-02-01T00:21:21.720Z,3.05
2023-02-01T00:26:36.780Z,3.10
2023-02-01T00:31:40.275Z,3.15
2023-02-01T00:36:45.521Z,3.22
2023-02-01T00:41:48.781Z,3.31
2023-02-01T00:46:51.539Z,3.33
2023-02-01T00:51:54.552Z,3.37
2023-02-01T00:56:57.571Z,3.43
2023-02-01T01:02:00.503Z,3.48
2023-02-01T01:07:03.523Z,3.49
2023-02-01T01:12:06.639Z,3.43
2023-02-01T01:17:09.658Z,3.37
2023-02-01T01:22:12.752Z,3.35
2023-02-01T01:27:15.612Z,3.33
2023-02-01T01:32:18.445Z,3.29
2023-02-01T01:37:21.274Z,3.28
2023-02-01T01:42:24.202Z,3.25
2023-02-01T01:47:30.998Z,3.18
2023-02-01T01:52:34.709Z,3.09
2023-02-01T01:57:43.224Z,3.01
2023-02-01T02:02:53.763Z,2.98
2023-02-01T02:07:59.530Z,2.96
2023-02-01T02:13:02.557Z,2.93
2023-02-01T02:18:39.166Z,2.93
2023-02-01T02:24:24.664Z,2.94
2023-02-01T02:30:11.954Z,3.03
2023-02-01T02:35:39.075Z,3.08
2023-02-01T02:41:39.902Z,3.16
2023-02-01T02:47:10.243Z,3.26
2023-02-01T02:52:38.413Z,3.25
2023-02-01T02:58:03.472Z,3.23
2023-02-01T03:03:25.695Z,3.18
2023-02-01T03:08:32.041Z,3.21
2023-02-01T03:13:48.296Z,3.19
2023-02-01T03:19:00.771Z,3.04
2023-02-01T03:24:22.239Z,2.89
2023-02-01T03:29:36.132Z,2.78
2023-02-01T03:34:39.204Z,2.68
2023-02-01T03:40:08.509Z,2.70
2023-02-01T03:45:45.605Z,2.69
2023-02-01T03:50:54.553Z,2.63
2023-02-01T03:55:58.051Z,2.61
2023-02-01T04:01:01.927Z,2.69
2023-02-01T04:06:05.196Z,2.75
2023-02-01T04:11:08.169Z,2.77
2023-02-01T04:16:11.414Z,2.79
2023-02-01T04:21:14.225Z,2.80
2023-02-01T04:26:17.624Z,2.77
2023-02-01T04:31:26.806Z,2.77
2023-02-01T04:36:29.924Z,2.74
2023-02-01T04:41:32.936Z,2.69
2023-02-01T04:46:36.099Z,2.66
2023-02-01T04:51:41.038Z,2.67
2023-02-01T04:56:44.005Z,2.67
2023-02-01T05:01:48.922Z,2.71
2023-02-01T05:06:52.121Z,2.80
2023-02-01T05:12:13.370Z,2.82
2023-02-01T05:17:16.547Z,2.86
2023-02-01T05:22:19.518Z,2.97
2023-02-01T05:27:22.580Z,3.06
2023-02-01T05:32:25.622Z,3.05
2023-02-01T05:37:29.031Z,3.07
2023-02-01T05:42:31.981Z,3.07
2023-02-01T05:47:34.958Z,3.07
2023-02-01T05:52:37.866Z,3.01
2023-02-01T05:57:40.951Z,2.99
2023-02-01T06:02:44.042Z,2.94
2023-02-01T06:07:47.065Z,2.91
2023-02-01T06:12:50.181Z,2.85
2023-02-01T06:17:53.081Z,2.80
2023-02-01T06:22:55.887Z,2.75
2023-02-01T06:28:02.287Z,2.74
2023-02-01T06:33:05.239Z,2.79
2023-02-01T06:38:08.121Z,2.88
2023-02-01T06:43:11.062Z,2.94
2023-02-01T06:48:14.108Z,2.95
2023-02-01T06:53:17.747Z,3.00
2023-02-01T06:58:20.734Z,3.04
2023-02-01T07:03:23.709Z,3.08
2023-02-01T07:08:29.101Z,3.16
2023-02-01T07:13:32.225Z,3.27
2023-02-01T07:18:35.391Z,3.89
2023-02-01T07:23:38.981Z,4.75
2023-02-01T07:28:42.817Z,5.29
2023-02-01T07:33:46.342Z,5.41
2023-02-01T07:38:49.512Z,5.28
2023-02-01T07:43:56.637Z,5.23
2023-02-01T07:48:59.765Z,5.21
2023-02-01T07:54:02.782Z,5.19
2023-02-01T07:59:05.752Z,5.19
2023-02-01T08:04:13.674Z,4.97
2023-02-01T08:09:16.730Z,4.72
2023-02-01T08:14:19.621Z,4.66
2023-02-01T08:19:22.732Z,4.96
2023-02-01T08:24:26.000Z,5.62
2023-02-01T08:29:29.262Z,5.89
2023-02-01T08:34:35.432Z,6.15
2023-02-01T08:39:38.603Z,6.20
2023-02-01T08:44:41.546Z,6.43
2023-02-01T08:49:44.676Z,6.74
2023-02-01T08:54:48.099Z,6.93
2023-02-01T08:59:50.977Z,6.87
2023-02-01T09:04:55.027Z,7.03
2023-02-01T09:10:01.126Z,7.10
2023-02-01T09:15:08.014Z,7.26
2023-02-01T09:20:12.080Z,6.92
2023-02-01T09:25:15.249Z,6.67
2023-02-01T09:30:18.565Z,6.29
2023-02-01T09:35:21.493Z,5.89
2023-02-01T09:40:25.189Z,5.80
2023-02-01T09:45:40.415Z,5.87
2023-02-01T09:50:51.643Z,5.98
2023-02-01T09:56:21.928Z,6.24
2023-02-01T10:01:27.524Z,6.53
2023-02-01T10:07:08.314Z,6.71
2023-02-01T10:12:39.893Z,6.62
2023-02-01T10:18:20.817Z,6.30
2023-02-01T10:24:16.107Z,5.98
2023-02-01T10:29:27.081Z,6.20
2023-02-01T10:34:35.375Z,6.41
2023-02-01T10:39:38.275Z,6.47
2023-02-01T10:44:48.053Z,6.70
2023-02-01T10:50:03.862Z,6.87
2023-02-01T10:55:42.360Z,7.21
2023-02-01T11:00:54.685Z,6.94
2023-02-01T11:05:58.544Z,6.47
2023-02-01T11:11:06.985Z,6.07
2023-02-01T11:16:15.959Z,5.88
2023-02-01T11:21:18.982Z,5.83
2023-02-01T11:26:29.114Z,5.83
2023-02-01T11:31:34.673Z,5.70
2023-02-01T11:36:40.145Z,5.28
2023-02-01T11:41:59.522Z,4.77
2023-02-01T11:47:23.798Z,4.30
2023-02-01T11:52:52.716Z,3.97
2023-02-01T11:58:10.866Z,3.78
2023-02-01T12:03:30.068Z,3.66
2023-02-01T12:09:06.262Z,3.67
2023-02-01T12:14:47.262Z,3.67
2023-02-01T12:20:27.351Z,3.62
2023-02-01T12:25:42.592Z,3.52
2023-02-01T12:31:31.072Z,3.32
2023-02-01T12:37:28.128Z,3.07
2023-02-01T12:42:40.030Z,2.75
2023-02-01T12:48:24.949Z,2.62
2023-02-01T12:53:43.049Z,2.60
2023-02-01T12:58:57.081Z,2.63
2023-02-01T13:04:17.981Z,2.71
2023-02-01T13:09:26.670Z,2.86
2023-02-01T13:14:49.271Z,3.14
2023-02-01T13:20:20.150Z,3.49
2023-02-01T13:25:50.685Z,3.77
2023-02-01T13:31:12.025Z,3.78
2023-02-01T13:36:55.575Z,3.78
2023-02-01T13:42:19.985Z,3.76
2023-02-01T13:47:32.788Z,3.79
2023-02-01T13:52:46.677Z,3.92
2023-02-01T13:58:09.555Z,4.04
2023-02-01T14:03:20.215Z,4.25
2023-02-01T14:08:41.328Z,4.20
2023-02-01T14:13:46.396Z,3.85
2023-02-01T14:18:49.286Z,3.29
2023-02-01T14:23:55.314Z,2.90
2023-02-01T14:29:20.841Z,2.74
2023-02-01T14:34:44.184Z,2.67
2023-02-01T14:39:47.131Z,2.60
2023-02-01T14:44:58.738Z,2.61
2023-02-01T14:50:13.664Z,2.78
2023-02-01T14:55:30.310Z,2.86
2023-02-01T15:00:34.335Z,2.99
2023-02-01T15:05:37.226Z,3.08
2023-02-01T15:10:49.625Z,3.16
2023-02-01T15:16:16.182Z,3.11
2023-02-01T15:21:28.523Z,3.09
2023-02-01T15:26:35.598Z,3.05
2023-02-01T15:31:46.079Z,3.11
2023-02-01T15:37:02.152Z,3.08
2023-02-01T15:42:19.796Z,3.03
2023-02-01T15:47:31.771Z,2.92
2023-02-01T15:52:42.534Z,2.90
2023-02-01T15:57:46.115Z,2.95
2023-02-01T16:02:59.587Z,3.08
2023-02-01T16:08:21.408Z,3.23
2023-02-01T16:13:24.392Z,3.22
2023-02-01T16:18:27.171Z,3.20
2023-02-01T16:23:31.544Z,3.23
2023-02-01T16:28:35.902Z,3.25
2023-02-01T16:33:38.839Z,3.29
2023-02-01T16:38:41.630Z,3.32
2023-02-01T16:43:45.140Z,3.24
2023-02-01T16:48:56.909Z,3.23
2023-02-01T16:54:02.032Z,3.23
2023-02-01T16:59:05.182Z,3.25
2023-02-01T17:04:10.044Z,3.24
2023-02-01T17:09:13.086Z,3.22
2023-02-01T17:14:20.457Z,3.27
2023-02-01T17:19:24.715Z,3.23
2023-02-01T17:24:46.602Z,3.15
2023-02-01T17:29:51.874Z,3.17
2023-02-01T17:34:54.764Z,3.30
2023-02-01T17:39:58.438Z,3.36
2023-02-01T17:45:32.073Z,3.39
2023-02-01T17:50:39.256Z,3.39
2023-02-01T17:55:46.355Z,3.37
2023-02-01T18:00:49.743Z,3.38
2023-02-01T18:05:55.952Z,3.44
2023-02-01T18:11:01.469Z,3.45
2023-02-01T18:16:04.906Z,3.44
2023-02-01T18:21:09.520Z,3.40
2023-02-01T18:26:15.464Z,3.45
2023-02-01T18:31:29.878Z,3.49
2023-02-01T18:36:33.289Z,3.48
2023-02-01T18:41:37.004Z,3.41
2023-02-01T18:46:39.908Z,3.36
2023-02-01T18:51:43.594Z,3.34
2023-02-01T18:56:46.610Z,3.33
2023-02-01T19:01:49.568Z,3.30
2023-02-01T19:06:53.194Z,3.39
2023-02-01T19:11:56.339Z,3.44
2023-02-01T19:16:59.814Z,3.46
2023-02-01T19:22:04.296Z,3.53
2023-02-01T19:27:09.139Z,3.57
2023-02-01T19:32:13.911Z,3.57
2023-02-01T19:37:17.324Z,3.56
2023-02-01T19:42:20.616Z,3.64
2023-02-01T19:47:23.742Z,3.72
2023-02-01T19:52:27.329Z,3.76
2023-02-01T19:57:31.144Z,3.76
2023-02-01T20:02:33.872Z,3.78
2023-02-01T20:07:36.783Z,3.80
2023-02-01T20:12:40.501Z,3.81
2023-02-01T20:17:44.342Z,3.80
2023-02-01T20:22:47.179Z,3.80
2023-02-01T20:27:52.143Z,3.78
2023-02-01T20:32:55.110Z,3.70
2023-02-01T20:37:59.169Z,3.50
2023-02-01T20:43:02.208Z,3.33
2023-02-01T20:48:05.620Z,3.19
2023-02-01T20:53:11.084Z,3.08
2023-02-01T20:58:15.979Z,2.98
2023-02-01T21:03:19.120Z,2.91
2023-02-01T21:08:23.857Z,2.86
2023-02-01T21:13:30.646Z,2.87
2023-02-01T21:18:33.682Z,2.85
2023-02-01T21:23:47.864Z,2.82
2023-02-01T21:28:52.662Z,2.85
2023-02-01T21:33:55.618Z,2.81
2023-02-01T21:39:03.685Z,2.81
2023-02-01T21:44:07.296Z,2.78
2023-02-01T21:49:10.916Z,2.70
2023-02-01T21:54:14.420Z,2.62
2023-02-01T21:59:17.552Z,2.58
2023-02-01T22:04:20.500Z,2.57
2023-02-01T22:09:26.262Z,2.54
2023-02-01T22:14:29.492Z,2.51
2023-02-01T22:19:32.543Z,2.53
2023-02-01T22:24:36.103Z,2.63
2023-02-01T22:29:39.088Z,2.73
2023-02-01T22:34:42.713Z,2.80
2023-02-01T22:39:45.757Z,2.86
2023-02-01T22:44:48.736Z,3.00
2023-02-01T22:49:51.583Z,3.14
2023-02-01T22:54:55.234Z,3.18
2023-02-01T22:59:58.271Z,3.23
2023-02-01T23:05:01.212Z,3.32
2023-02-01T23:10:05.067Z,3.44
2023-02-01T23:15:08.956Z,3.40
2023-02-01T23:20:18.600Z,3.29
2023-02-01T23:25:21.422Z,3.21
2023-02-01T23:30:24.352Z,3.12
2023-02-01T23:35:28.798Z,3.08
2023-02-01T23:40:31.937Z,3.01
2023-02-01T23:45:34.884Z,2.97
2023-02-01T23:50:37.964Z,2.92
2023-02-01T23:55:40.847Z,2.92
